sensor_id;sensor_type;location;lat;lon;timestamp;temperature;humidity
52867;DHT22;38739;53.324;6.862;2023-04-01T00:00:16;10.00;99.90
52867;DHT22;38739;53.324;6.862;2023-04-01T00:02:42;9.90;99.90
52867;DHT22;38739;53.324;6.862;2023-04-01T00:05:09;10.00;99.90
52867;DHT22;38739;53.324;6.862;2023-04-01T00:07:36;10.00;99.90
52867;DHT22;38739;53.324;6.862;2023-04-01T00:10:03;10.00;99.90
52867;DHT22;38739;53.324;6.862;2023-04-01T00:12:29;10.00;99.90
52867;DHT22;38739;53.324;6.862;2023-04-01T00:14:55;9.90;99.90
52867;DHT22;38739;53.324;6.862;2023-04-01T00:17:21;9.90;99.90
52867;DHT22;38739;53.324;6.862;2023-04-01T00:19:46;9.90;99.90
52867;DHT22;38739;53.324;6.862;2023-04-01T00:22:12;9.90;99.90
52867;DHT22;38739;53.324;6.862;2023-04-01T00:24:38;9.90;99.90
52867;DHT22;38739;53.324;6.862;2023-04-01T00:27:04;9.90;99.90
52867;DHT22;38739;53.324;6.862;2023-04-01T00:29:31;9.90;99.90
52867;DHT22;38739;53.324;6.862;2023-04-01T00:31:58;9.90;99.90
52867;DHT22;38739;53.324;6.862;2023-04-01T00:34:24;9.90;99.90
52867;DHT22;38739;53.324;6.862;2023-04-01T00:36:52;9.90;99.90
52867;DHT22;38739;53.324;6.862;2023-04-01T00:39:20;9.90;99.90
52867;DHT22;38739;53.324;6.862;2023-04-01T00:41:46;9.90;99.90
52867;DHT22;38739;53.324;6.862;2023-04-01T00:44:19;9.90;99.90
52867;DHT22;38739;53.324;6.862;2023-04-01T00:46:45;9.90;99.90
52867;DHT22;38739;53.324;6.862;2023-04-01T00:49:11;9.90;99.90
52867;DHT22;38739;53.324;6.862;2023-04-01T00:51:39;9.90;99.90
52867;DHT22;38739;53.324;6.862;2023-04-01T00:54:07;9.90;99.90
52867;DHT22;38739;53.324;6.862;2023-04-01T00:56:45;9.90;99.90
52867;DHT22;38739;53.324;6.862;2023-04-01T00:59:21;9.90;99.90
52867;DHT22;38739;53.324;6.862;2023-04-01T01:01:47;9.90;99.90
52867;DHT22;38739;53.324;6.862;2023-04-01T01:04:28;9.90;99.90
52867;DHT22;38739;53.324;6.862;2023-04-01T01:07:15;9.90;99.90
52867;DHT22;38739;53.324;6.862;2023-04-01T01:31:12;9.90;99.90
52867;DHT22;38739;53.324;6.862;2023-04-01T01:36:20;9.90;99.90
52867;DHT22;38739;53.324;6.862;2023-04-01T01:38:48;9.90;99.90
52867;DHT22;38739;53.324;6.862;2023-04-01T01:41:16;9.90;99.90
52867;DHT22;38739;53.324;6.862;2023-04-01T01:43:46;9.90;99.90
52867;DHT22;38739;53.324;6.862;2023-04-01T01:46:17;9.90;99.90
52867;DHT22;38739;53.324;6.862;2023-04-01T01:48:45;9.90;99.90
52867;DHT22;38739;53.324;6.862;2023-04-01T01:51:11;9.90;99.90
52867;DHT22;38739;53.324;6.862;2023-04-01T01:53:37;9.90;99.90
52867;DHT22;38739;53.324;6.862;2023-04-01T01:56:04;9.90;99.90
52867;DHT22;38739;53.324;6.862;2023-04-01T01:58:43;9.90;99.90
52867;DHT22;38739;53.324;6.862;2023-04-01T02:01:23;9.90;99.90
52867;DHT22;38739;53.324;6.862;2023-04-01T02:03:51;9.90;99.90
52867;DHT22;38739;53.324;6.862;2023-04-01T02:06:21;9.90;99.90
52867;DHT22;38739;53.324;6.862;2023-04-01T02:08:51;9.90;99.90
52867;DHT22;38739;53.324;6.862;2023-04-01T02:11:30;9.90;99.90
52867;DHT22;38739;53.324;6.862;2023-04-01T02:14:17;9.90;99.90
52867;DHT22;38739;53.324;6.862;2023-04-01T02:19:16;9.90;99.90
52867;DHT22;38739;53.324;6.862;2023-04-01T02:21:59;9.90;99.90
52867;DHT22;38739;53.324;6.862;2023-04-01T02:24:27;9.90;99.90
52867;DHT22;38739;53.324;6.862;2023-04-01T02:26:54;9.90;99.90
52867;DHT22;38739;53.324;6.862;2023-04-01T02:29:24;9.90;99.90
52867;DHT22;38739;53.324;6.862;2023-04-01T02:31:53;9.90;99.90
52867;DHT22;38739;53.324;6.862;2023-04-01T02:34:21;9.90;99.90
52867;DHT22;38739;53.324;6.862;2023-04-01T02:36:48;9.90;99.90
52867;DHT22;38739;53.324;6.862;2023-04-01T02:39:15;9.90;99.90
52867;DHT22;38739;53.324;6.862;2023-04-01T02:41:43;9.90;99.90
52867;DHT22;38739;53.324;6.862;2023-04-01T02:44:11;10.00;99.90
52867;DHT22;38739;53.324;6.862;2023-04-01T02:46:37;9.90;99.90
52867;DHT22;38739;53.324;6.862;2023-04-01T02:49:03;9.90;99.90
52867;DHT22;38739;53.324;6.862;2023-04-01T02:51:29;9.90;99.90
52867;DHT22;38739;53.324;6.862;2023-04-01T02:53:54;9.90;99.90
52867;DHT22;38739;53.324;6.862;2023-04-01T02:56:20;10.00;99.90
52867;DHT22;38739;53.324;6.862;2023-04-01T02:58:47;9.90;99.90
52867;DHT22;38739;53.324;6.862;2023-04-01T03:01:13;10.00;99.90
52867;DHT22;38739;53.324;6.862;2023-04-01T03:03:38;9.90;99.90
52867;DHT22;38739;53.324;6.862;2023-04-01T03:06:06;9.90;99.90
52867;DHT22;38739;53.324;6.862;2023-04-01T03:08:32;9.90;99.90
52867;DHT22;38739;53.324;6.862;2023-04-01T03:10:57;9.90;99.90
52867;DHT22;38739;53.324;6.862;2023-04-01T03:13:23;9.90;99.90
52867;DHT22;38739;53.324;6.862;2023-04-01T03:15:49;9.90;99.90
52867;DHT22;38739;53.324;6.862;2023-04-01T03:18:14;9.90;99.90
52867;DHT22;38739;53.324;6.862;2023-04-01T03:20:40;9.90;99.90
52867;DHT22;38739;53.324;6.862;2023-04-01T03:23:07;9.90;99.90
52867;DHT22;38739;53.324;6.862;2023-04-01T03:25:32;9.90;99.90
52867;DHT22;38739;53.324;6.862;2023-04-01T03:27:58;9.90;99.90
52867;DHT22;38739;53.324;6.862;2023-04-01T03:30:25;9.90;99.90
52867;DHT22;38739;53.324;6.862;2023-04-01T03:32:51;9.90;99.90
52867;DHT22;38739;53.324;6.862;2023-04-01T03:35:18;9.90;99.90
52867;DHT22;38739;53.324;6.862;2023-04-01T03:37:44;9.90;99.90
52867;DHT22;38739;53.324;6.862;2023-04-01T03:40:10;9.90;99.90
52867;DHT22;38739;53.324;6.862;2023-04-01T03:42:36;9.90;99.90
52867;DHT22;38739;53.324;6.862;2023-04-01T03:45:03;9.90;99.90
52867;DHT22;38739;53.324;6.862;2023-04-01T03:47:29;9.80;99.90
52867;DHT22;38739;53.324;6.862;2023-04-01T03:49:55;9.80;99.90
52867;DHT22;38739;53.324;6.862;2023-04-01T03:52:21;9.80;99.90
52867;DHT22;38739;53.324;6.862;2023-04-01T03:54:46;9.80;99.90
52867;DHT22;38739;53.324;6.862;2023-04-01T03:57:12;9.80;99.90
52867;DHT22;38739;53.324;6.862;2023-04-01T03:59:38;9.80;99.90
52867;DHT22;38739;53.324;6.862;2023-04-01T04:02:04;9.80;99.90
52867;DHT22;38739;53.324;6.862;2023-04-01T04:04:30;9.80;99.90
52867;DHT22;38739;53.324;6.862;2023-04-01T04:06:56;9.80;99.90
52867;DHT22;38739;53.324;6.862;2023-04-01T04:09:22;9.80;99.90
52867;DHT22;38739;53.324;6.862;2023-04-01T04:11:49;9.80;99.90
52867;DHT22;38739;53.324;6.862;2023-04-01T04:14:14;9.80;99.90
52867;DHT22;38739;53.324;6.862;2023-04-01T04:16:40;9.80;99.90
52867;DHT22;38739;53.324;6.862;2023-04-01T04:19:06;9.80;99.90
52867;DHT22;38739;53.324;6.862;2023-04-01T04:21:32;9.80;99.90
52867;DHT22;38739;53.324;6.862;2023-04-01T04:23:59;9.80;99.90
52867;DHT22;38739;53.324;6.862;2023-04-01T04:26:25;9.80;99.90
52867;DHT22;38739;53.324;6.862;2023-04-01T04:28:52;9.80;99.90
52867;DHT22;38739;53.324;6.862;2023-04-01T04:31:23;9.80;99.90
52867;DHT22;38739;53.324;6.862;2023-04-01T04:33:49;9.80;99.90
52867;DHT22;38739;53.324;6.862;2023-04-01T04:36:15;9.80;99.90
52867;DHT22;38739;53.324;6.862;2023-04-01T04:38:41;9.80;99.90
52867;DHT22;38739;53.324;6.862;2023-04-01T04:41:14;9.80;99.90
52867;DHT22;38739;53.324;6.862;2023-04-01T04:43:41;9.80;99.90
52867;DHT22;38739;53.324;6.862;2023-04-01T04:46:08;9.80;99.90
52867;DHT22;38739;53.324;6.862;2023-04-01T04:48:33;9.80;99.90
52867;DHT22;38739;53.324;6.862;2023-04-01T04:51:00;9.80;99.90
52867;DHT22;38739;53.324;6.862;2023-04-01T04:53:26;9.80;99.90
52867;DHT22;38739;53.324;6.862;2023-04-01T04:55:52;9.80;99.90
52867;DHT22;38739;53.324;6.862;2023-04-01T04:58:18;9.80;99.90
52867;DHT22;38739;53.324;6.862;2023-04-01T05:00:45;9.80;99.90
52867;DHT22;38739;53.324;6.862;2023-04-01T05:03:12;9.80;99.90
52867;DHT22;38739;53.324;6.862;2023-04-01T05:05:38;9.80;99.90
52867;DHT22;38739;53.324;6.862;2023-04-01T05:08:04;9.80;99.90
52867;DHT22;38739;53.324;6.862;2023-04-01T05:10:30;9.80;99.90
52867;DHT22;38739;53.324;6.862;2023-04-01T05:12:57;9.80;99.90
52867;DHT22;38739;53.324;6.862;2023-04-01T05:15:23;9.80;99.90
52867;DHT22;38739;53.324;6.862;2023-04-01T05:17:49;9.80;99.90
52867;DHT22;38739;53.324;6.862;2023-04-01T05:20:15;9.80;99.90
52867;DHT22;38739;53.324;6.862;2023-04-01T05:22:42;9.80;99.90
52867;DHT22;38739;53.324;6.862;2023-04-01T05:25:08;9.80;99.90
52867;DHT22;38739;53.324;6.862;2023-04-01T05:27:34;9.80;99.90
52867;DHT22;38739;53.324;6.862;2023-04-01T05:30:00;9.80;99.90
52867;DHT22;38739;53.324;6.862;2023-04-01T05:32:26;9.80;99.90
52867;DHT22;38739;53.324;6.862;2023-04-01T05:34:52;9.80;99.90
52867;DHT22;38739;53.324;6.862;2023-04-01T05:37:18;9.80;99.90
52867;DHT22;38739;53.324;6.862;2023-04-01T05:39:44;9.80;99.90
52867;DHT22;38739;53.324;6.862;2023-04-01T05:42:10;9.80;99.90
52867;DHT22;38739;53.324;6.862;2023-04-01T05:44:35;9.80;99.90
52867;DHT22;38739;53.324;6.862;2023-04-01T05:47:02;9.90;99.90
52867;DHT22;38739;53.324;6.862;2023-04-01T05:49:28;9.80;99.90
52867;DHT22;38739;53.324;6.862;2023-04-01T05:51:54;9.90;99.90
52867;DHT22;38739;53.324;6.862;2023-04-01T05:54:20;9.90;99.90
52867;DHT22;38739;53.324;6.862;2023-04-01T05:56:46;9.90;99.90
52867;DHT22;38739;53.324;6.862;2023-04-01T05:59:12;10.00;99.90
52867;DHT22;38739;53.324;6.862;2023-04-01T06:01:39;9.90;99.90
52867;DHT22;38739;53.324;6.862;2023-04-01T06:04:04;9.90;99.90
52867;DHT22;38739;53.324;6.862;2023-04-01T06:06:31;10.00;99.90
52867;DHT22;38739;53.324;6.862;2023-04-01T06:09:06;9.90;99.90
52867;DHT22;38739;53.324;6.862;2023-04-01T06:14:57;10.00;99.90
52867;DHT22;38739;53.324;6.862;2023-04-01T06:17:26;10.00;99.90
52867;DHT22;38739;53.324;6.862;2023-04-01T06:20:12;10.00;99.90
52867;DHT22;38739;53.324;6.862;2023-04-01T06:23:05;10.00;99.90
52867;DHT22;38739;53.324;6.862;2023-04-01T06:25:43;10.00;99.90
52867;DHT22;38739;53.324;6.862;2023-04-01T06:28:37;10.10;99.90
52867;DHT22;38739;53.324;6.862;2023-04-01T06:37:11;10.20;99.90
52867;DHT22;38739;53.324;6.862;2023-04-01T06:51:02;10.40;99.90
52867;DHT22;38739;53.324;6.862;2023-04-01T06:53:41;10.40;99.90
52867;DHT22;38739;53.324;6.862;2023-04-01T06:56:11;10.40;99.90
52867;DHT22;38739;53.324;6.862;2023-04-01T06:59:00;10.40;99.90
52867;DHT22;38739;53.324;6.862;2023-04-01T07:01:55;10.40;99.90
52867;DHT22;38739;53.324;6.862;2023-04-01T07:04:26;10.50;99.90
52867;DHT22;38739;53.324;6.862;2023-04-01T07:06:59;10.50;99.90
52867;DHT22;38739;53.324;6.862;2023-04-01T07:09:38;10.50;99.90
52867;DHT22;38739;53.324;6.862;2023-04-01T07:14:54;10.60;99.90
52867;DHT22;38739;53.324;6.862;2023-04-01T07:17:25;10.60;99.90
52867;DHT22;38739;53.324;6.862;2023-04-01T07:22:39;10.70;99.90
52867;DHT22;38739;53.324;6.862;2023-04-01T07:27:38;10.90;99.90
52867;DHT22;38739;53.324;6.862;2023-04-01T07:30:14;10.90;99.90
52867;DHT22;38739;53.324;6.862;2023-04-01T07:32:51;10.90;99.90
52867;DHT22;38739;53.324;6.862;2023-04-01T07:35:36;11.00;99.90
52867;DHT22;38739;53.324;6.862;2023-04-01T07:49:33;11.00;99.90
52867;DHT22;38739;53.324;6.862;2023-04-01T07:55:14;11.00;99.90
52867;DHT22;38739;53.324;6.862;2023-04-01T08:00:51;11.10;99.90
52867;DHT22;38739;53.324;6.862;2023-04-01T08:16:38;11.00;99.90
52867;DHT22;38739;53.324;6.862;2023-04-01T08:19:43;11.00;99.90
52867;DHT22;38739;53.324;6.862;2023-04-01T08:22:07;11.10;99.90
52867;DHT22;38739;53.324;6.862;2023-04-01T08:24:42;11.20;99.90
52867;DHT22;38739;53.324;6.862;2023-04-01T08:27:35;11.30;99.90
52867;DHT22;38739;53.324;6.862;2023-04-01T08:30:24;11.10;99.90
52867;DHT22;38739;53.324;6.862;2023-04-01T08:33:00;11.00;99.90
52867;DHT22;38739;53.324;6.862;2023-04-01T08:35:36;10.80;99.90
52867;DHT22;38739;53.324;6.862;2023-04-01T08:38:38;10.80;99.90
52867;DHT22;38739;53.324;6.862;2023-04-01T08:44:20;10.50;99.90
52867;DHT22;38739;53.324;6.862;2023-04-01T08:52:35;10.10;99.90
52867;DHT22;38739;53.324;6.862;2023-04-01T09:00:55;9.90;99.90
52867;DHT22;38739;53.324;6.862;2023-04-01T09:09:32;9.70;99.90
52867;DHT22;38739;53.324;6.862;2023-04-01T09:12:26;9.80;99.90
52867;DHT22;38739;53.324;6.862;2023-04-01T09:25:38;9.80;99.90
52867;DHT22;38739;53.324;6.862;2023-04-01T09:37:27;10.00;99.90
52867;DHT22;38739;53.324;6.862;2023-04-01T09:59:35;9.90;99.90
52867;DHT22;38739;53.324;6.862;2023-04-01T10:02:27;9.80;99.90
52867;DHT22;38739;53.324;6.862;2023-04-01T10:05:24;9.80;99.90
52867;DHT22;38739;53.324;6.862;2023-04-01T10:14:35;9.90;99.90
52867;DHT22;38739;53.324;6.862;2023-04-01T10:25:05;9.90;99.90
52867;DHT22;38739;53.324;6.862;2023-04-01T10:33:32;9.70;99.90
52867;DHT22;38739;53.324;6.862;2023-04-01T10:36:36;9.70;99.90
52867;DHT22;38739;53.324;6.862;2023-04-01T10:42:20;9.60;99.90
52867;DHT22;38739;53.324;6.862;2023-04-01T10:56:40;9.70;99.90
52867;DHT22;38739;53.324;6.862;2023-04-01T11:27:36;10.00;99.90
52867;DHT22;38739;53.324;6.862;2023-04-01T11:40:47;10.40;99.90
52867;DHT22;38739;53.324;6.862;2023-04-01T11:43:27;10.60;99.90
52867;DHT22;38739;53.324;6.862;2023-04-01T11:46:33;10.70;99.90
52867;DHT22;38739;53.324;6.862;2023-04-01T12:00:57;10.60;99.90
52867;DHT22;38739;53.324;6.862;2023-04-01T12:11:44;10.30;99.90
52867;DHT22;38739;53.324;6.862;2023-04-01T12:14:18;10.20;99.90
52867;DHT22;38739;53.324;6.862;2023-04-01T12:23:03;10.30;99.90
52867;DHT22;38739;53.324;6.862;2023-04-01T12:31:19;10.40;99.90
52867;DHT22;38739;53.324;6.862;2023-04-01T12:56:03;10.40;99.90
52867;DHT22;38739;53.324;6.862;2023-04-01T12:59:37;10.50;99.90
52867;DHT22;38739;53.324;6.862;2023-04-01T13:07:57;10.50;99.90
52867;DHT22;38739;53.324;6.862;2023-04-01T13:18:54;10.40;99.90
52867;DHT22;38739;53.324;6.862;2023-04-01T13:21:38;10.60;99.90
52867;DHT22;38739;53.324;6.862;2023-04-01T13:29:28;10.40;99.90
52867;DHT22;38739;53.324;6.862;2023-04-01T13:32:27;10.40;99.90
52867;DHT22;38739;53.324;6.862;2023-04-01T13:52:08;10.00;99.90
52867;DHT22;38739;53.324;6.862;2023-04-01T14:12:10;9.70;99.90
52867;DHT22;38739;53.324;6.862;2023-04-01T14:14:54;9.50;99.90
52867;DHT22;38739;53.324;6.862;2023-04-01T14:28:22;9.30;99.90
52867;DHT22;38739;53.324;6.862;2023-04-01T14:50:42;8.90;99.90
52867;DHT22;38739;53.324;6.862;2023-04-01T14:55:54;8.80;99.90
52867;DHT22;38739;53.324;6.862;2023-04-01T14:58:22;8.80;99.90
52867;DHT22;38739;53.324;6.862;2023-04-01T15:00:59;8.70;99.90
52867;DHT22;38739;53.324;6.862;2023-04-01T15:03:33;8.70;99.90
52867;DHT22;38739;53.324;6.862;2023-04-01T15:14:26;8.60;99.90
52867;DHT22;38739;53.324;6.862;2023-04-01T15:23:03;8.50;99.90
52867;DHT22;38739;53.324;6.862;2023-04-01T15:25:51;8.50;99.90
52867;DHT22;38739;53.324;6.862;2023-04-01T15:31:38;8.40;99.90
52867;DHT22;38739;53.324;6.862;2023-04-01T15:45:01;8.20;99.90
52867;DHT22;38739;53.324;6.862;2023-04-01T15:47:42;8.20;99.90
52867;DHT22;38739;53.324;6.862;2023-04-01T15:53:34;8.10;99.90
52867;DHT22;38739;53.324;6.862;2023-04-01T15:56:16;8.10;99.90
52867;DHT22;38739;53.324;6.862;2023-04-01T15:59:20;8.10;99.90
52867;DHT22;38739;53.324;6.862;2023-04-01T16:01:59;8.10;99.90
52867;DHT22;38739;53.324;6.862;2023-04-01T16:05:19;8.00;99.90
52867;DHT22;38739;53.324;6.862;2023-04-01T16:08:02;8.00;99.90
52867;DHT22;38739;53.324;6.862;2023-04-01T16:22:19;7.80;99.90
52867;DHT22;38739;53.324;6.862;2023-04-01T16:29:00;7.80;99.90
52867;DHT22;38739;53.324;6.862;2023-04-01T16:36:45;7.70;99.90
52867;DHT22;38739;53.324;6.862;2023-04-01T16:42:22;7.60;99.90
52867;DHT22;38739;53.324;6.862;2023-04-01T16:50:23;7.50;99.90
52867;DHT22;38739;53.324;6.862;2023-04-01T16:53:08;7.50;99.90
52867;DHT22;38739;53.324;6.862;2023-04-01T16:55:49;7.50;99.90
52867;DHT22;38739;53.324;6.862;2023-04-01T16:58:37;7.50;99.90
52867;DHT22;38739;53.324;6.862;2023-04-01T17:01:20;7.40;99.90
52867;DHT22;38739;53.324;6.862;2023-04-01T17:03:52;7.40;99.90
52867;DHT22;38739;53.324;6.862;2023-04-01T17:11:26;7.30;99.90
52867;DHT22;38739;53.324;6.862;2023-04-01T17:30:24;7.10;99.90
52867;DHT22;38739;53.324;6.862;2023-04-01T17:36:02;7.00;99.90
52867;DHT22;38739;53.324;6.862;2023-04-01T17:41:53;7.00;99.90
52867;DHT22;38739;53.324;6.862;2023-04-01T17:44:35;7.00;99.90
52867;DHT22;38739;53.324;6.862;2023-04-01T17:47:32;6.90;99.90
52867;DHT22;38739;53.324;6.862;2023-04-01T17:50:34;6.90;99.90
52867;DHT22;38739;53.324;6.862;2023-04-01T17:58:20;6.80;99.90
52867;DHT22;38739;53.324;6.862;2023-04-01T18:17:59;6.70;99.90
52867;DHT22;38739;53.324;6.862;2023-04-01T18:20:41;6.60;99.90
52867;DHT22;38739;53.324;6.862;2023-04-01T18:23:12;6.60;99.90
52867;DHT22;38739;53.324;6.862;2023-04-01T18:25:41;6.60;99.90
52867;DHT22;38739;53.324;6.862;2023-04-01T18:36:55;6.50;99.90
52867;DHT22;38739;53.324;6.862;2023-04-01T18:39:37;6.50;99.90
52867;DHT22;38739;53.324;6.862;2023-04-01T18:42:38;6.40;99.90
52867;DHT22;38739;53.324;6.862;2023-04-01T18:45:33;6.40;99.90
52867;DHT22;38739;53.324;6.862;2023-04-01T18:50:53;6.30;99.90
52867;DHT22;38739;53.324;6.862;2023-04-01T18:56:35;6.30;99.90
52867;DHT22;38739;53.324;6.862;2023-04-01T19:06:54;6.20;99.90
52867;DHT22;38739;53.324;6.862;2023-04-01T19:09:25;6.10;99.90
52867;DHT22;38739;53.324;6.862;2023-04-01T19:12:25;6.10;99.90
52867;DHT22;38739;53.324;6.862;2023-04-01T19:18:33;6.10;99.90
52867;DHT22;38739;53.324;6.862;2023-04-01T19:23:54;6.00;99.90
52867;DHT22;38739;53.324;6.862;2023-04-01T19:26:58;6.00;99.90
52867;DHT22;38739;53.324;6.862;2023-04-01T19:29:47;6.00;99.90
52867;DHT22;38739;53.324;6.862;2023-04-01T19:38:03;5.90;99.90
52867;DHT22;38739;53.324;6.862;2023-04-01T19:49:46;5.80;99.90
52867;DHT22;38739;53.324;6.862;2023-04-01T19:52:27;5.80;99.90
52867;DHT22;38739;53.324;6.862;2023-04-01T19:57:51;5.80;99.90
52867;DHT22;38739;53.324;6.862;2023-04-01T20:00:53;5.80;99.90
52867;DHT22;38739;53.324;6.862;2023-04-01T20:03:46;5.80;99.90
52867;DHT22;38739;53.324;6.862;2023-04-01T20:06:27;5.80;99.90
52867;DHT22;38739;53.324;6.862;2023-04-01T20:14:27;5.70;99.90
52867;DHT22;38739;53.324;6.862;2023-04-01T20:17:24;5.70;99.90
52867;DHT22;38739;53.324;6.862;2023-04-01T20:20:01;5.70;99.90
52867;DHT22;38739;53.324;6.862;2023-04-01T20:28:21;5.70;99.90
52867;DHT22;38739;53.324;6.862;2023-04-01T20:33:42;5.60;99.90
52867;DHT22;38739;53.324;6.862;2023-04-01T20:53:16;5.50;99.90
52867;DHT22;38739;53.324;6.862;2023-04-01T20:58:46;5.50;99.90
52867;DHT22;38739;53.324;6.862;2023-04-01T21:07:15;5.40;99.90
52867;DHT22;38739;53.324;6.862;2023-04-01T21:15:51;5.40;99.90
52867;DHT22;38739;53.324;6.862;2023-04-01T21:26:36;5.40;99.90
52867;DHT22;38739;53.324;6.862;2023-04-01T21:29:32;5.30;99.90
52867;DHT22;38739;53.324;6.862;2023-04-01T21:56:29;5.10;99.90
52867;DHT22;38739;53.324;6.862;2023-04-01T22:07:16;5.00;99.90
52867;DHT22;38739;53.324;6.862;2023-04-01T22:10:32;5.00;99.90
52867;DHT22;38739;53.324;6.862;2023-04-01T22:18:31;4.80;99.90
52867;DHT22;38739;53.324;6.862;2023-04-01T22:26:24;4.70;99.90
52867;DHT22;38739;53.324;6.862;2023-04-01T22:31:32;4.60;99.90
52867;DHT22;38739;53.324;6.862;2023-04-01T22:34:16;4.60;99.90
52867;DHT22;38739;53.324;6.862;2023-04-01T22:42:45;4.50;99.90
52867;DHT22;38739;53.324;6.862;2023-04-01T22:48:23;4.40;99.90
52867;DHT22;38739;53.324;6.862;2023-04-01T22:51:18;4.30;99.90
52867;DHT22;38739;53.324;6.862;2023-04-01T22:53:48;4.30;99.90
52867;DHT22;38739;53.324;6.862;2023-04-01T22:56:21;4.20;99.90
52867;DHT22;38739;53.324;6.862;2023-04-01T22:59:04;4.20;99.90
52867;DHT22;38739;53.324;6.862;2023-04-01T23:01:36;4.10;99.90
52867;DHT22;38739;53.324;6.862;2023-04-01T23:04:05;4.10;99.90
52867;DHT22;38739;53.324;6.862;2023-04-01T23:06:47;4.00;99.90
52867;DHT22;38739;53.324;6.862;2023-04-01T23:09:29;3.90;99.90
52867;DHT22;38739;53.324;6.862;2023-04-01T23:12:09;3.80;99.90
52867;DHT22;38739;53.324;6.862;2023-04-01T23:22:54;3.70;99.90
52867;DHT22;38739;53.324;6.862;2023-04-01T23:36:11;3.50;99.90
52867;DHT22;38739;53.324;6.862;2023-04-01T23:38:42;3.40;99.90
52867;DHT22;38739;53.324;6.862;2023-04-01T23:41:25;3.40;99.90
52867;DHT22;38739;53.324;6.862;2023-04-01T23:44:09;3.40;99.90
52867;DHT22;38739;53.324;6.862;2023-04-01T23:46:39;3.30;99.90
52867;DHT22;38739;53.324;6.862;2023-04-01T23:49:17;3.30;99.90
52867;DHT22;38739;53.324;6.862;2023-04-01T23:51:59;3.20;99.90
52867;DHT22;38739;53.324;6.862;2023-04-01T23:54:43;3.20;99.90
52867;DHT22;38739;53.324;6.862;2023-04-01T23:57:15;3.20;99.90
52867;DHT22;38739;53.324;6.862;2023-04-01T23:59:43;3.20;99.90
